createdAt,value
2016-11-20T00:00:08.564Z,1.88
2016-11-20T00:01:17.179Z,1.91
2016-11-20T00:02:25.798Z,1.81
2016-11-20T00:03:34.424Z,1.79
2016-11-20T00:04:43.014Z,1.84
2016-11-20T00:05:51.615Z,1.77
2016-11-20T00:07:00.232Z,1.81
2016-11-20T00:08:08.879Z,1.73
2016-11-20T00:09:17.479Z,1.79
2016-11-20T00:10:26.096Z,1.76
2016-11-20T00:11:34.724Z,1.72
2016-11-20T00:12:43.316Z,1.69
2016-11-20T00:13:51.935Z,1.69
2016-11-20T00:15:00.583Z,1.72
2016-11-20T00:16:09.185Z,1.6
2016-11-20T00:17:17.822Z,1.7
2016-11-20T00:18:26.426Z,1.65
2016-11-20T00:19:35.059Z,1.66
2016-11-20T00:20:43.689Z,1.66
2016-11-20T00:21:52.332Z,1.69
2016-11-20T00:23:00.949Z,1.6
2016-11-20T00:24:09.599Z,1.63
2016-11-20T00:25:18.231Z,1.59
2016-11-20T00:26:26.866Z,1.69
2016-11-20T00:27:35.488Z,1.63
2016-11-20T00:28:44.108Z,1.58
2016-11-20T00:29:52.705Z,1.6
2016-11-20T00:31:01.312Z,1.59
2016-11-20T00:32:09.932Z,1.5
2016-11-20T00:33:18.571Z,1.52
2016-11-20T00:34:27.190Z,1.47
2016-11-20T00:35:35.805Z,1.41
2016-11-20T00:36:44.439Z,1.47
2016-11-20T00:37:53.077Z,1.41
2016-11-20T00:39:01.744Z,1.42
2016-11-20T00:40:10.390Z,1.47
2016-11-20T00:41:18.995Z,1.51
2016-11-20T00:42:27.607Z,1.5
2016-11-20T00:43:36.203Z,1.63
2016-11-20T00:44:44.799Z,1.6
2016-11-20T00:45:53.431Z,1.52
2016-11-20T00:47:02.066Z,1.48
2016-11-20T00:48:10.687Z,1.52
2016-11-20T00:49:19.321Z,1.42
2016-11-20T00:50:27.937Z,1.36
2016-11-20T00:51:36.525Z,1.36
2016-11-20T00:52:45.134Z,1.36
2016-11-20T00:53:53.744Z,1.36
2016-11-20T00:55:02.400Z,1.32
2016-11-20T00:56:11.010Z,1.41
2016-11-20T00:57:19.631Z,1.42
2016-11-20T00:58:28.235Z,1.29
2016-11-20T00:59:36.885Z,1.24
2016-11-20T01:00:45.501Z,1.27
2016-11-20T01:01:54.120Z,1.2
2016-11-20T01:03:02.723Z,1.24
2016-11-20T01:04:11.335Z,1.29
2016-11-20T01:05:19.937Z,1.29
2016-11-20T01:06:28.562Z,1.32
2016-11-20T01:07:37.206Z,1.23
2016-11-20T01:08:45.829Z,1.33
2016-11-20T01:09:54.446Z,1.24
2016-11-20T01:11:03.066Z,1.18
2016-11-20T01:12:11.988Z,1.2
2016-11-20T01:13:20.613Z,1.3
2016-11-20T01:14:29.260Z,1.27
2016-11-20T01:15:37.897Z,1.26
2016-11-20T01:16:46.497Z,1.22
2016-11-20T01:17:55.118Z,1.27
2016-11-20T01:19:03.736Z,1.23
2016-11-20T01:20:12.378Z,1.22
2016-11-20T01:21:20.987Z,1.24
2016-11-20T01:22:29.625Z,1.29
2016-11-20T01:23:38.246Z,1.24
2016-11-20T01:24:46.867Z,1.24
2016-11-20T01:25:55.521Z,1.2
2016-11-20T01:27:04.762Z,1.29
2016-11-20T01:28:13.375Z,1.34
2016-11-20T01:29:22.011Z,1.37
2016-11-20T01:30:30.622Z,1.34
2016-11-20T01:31:39.564Z,1.32
2016-11-20T01:32:48.186Z,1.4
2016-11-20T01:33:56.793Z,1.36
2016-11-20T01:35:05.433Z,1.36
2016-11-20T01:36:14.356Z,1.41
2016-11-20T01:37:22.970Z,1.29
2016-11-20T01:38:31.574Z,1.33
2016-11-20T01:39:40.191Z,1.3
2016-11-20T01:40:48.817Z,1.37
2016-11-20T01:41:57.434Z,1.33
2016-11-20T01:43:06.050Z,1.34
2016-11-20T01:44:14.679Z,1.33
2016-11-20T01:45:23.304Z,1.36
2016-11-20T01:46:31.946Z,1.36
2016-11-20T01:47:40.572Z,1.4
2016-11-20T01:48:49.215Z,1.47
2016-11-20T01:49:57.859Z,1.37
2016-11-20T01:51:06.485Z,1.41
2016-11-20T01:52:15.127Z,1.44
2016-11-20T01:53:23.740Z,1.4
2016-11-20T01:54:32.372Z,1.41
2016-11-20T01:55:40.986Z,1.37
2016-11-20T01:56:49.628Z,1.48
2016-11-20T01:57:58.261Z,1.47
2016-11-20T01:59:06.878Z,1.37
2016-11-20T02:00:15.497Z,1.36
2016-11-20T02:01:24.118Z,1.47
2016-11-20T02:02:32.772Z,1.36
2016-11-20T02:03:41.392Z,1.36
2016-11-20T02:04:50.009Z,1.3
2016-11-20T02:05:58.623Z,1.29
2016-11-20T02:07:07.270Z,1.34
2016-11-20T02:08:15.919Z,1.3
2016-11-20T02:09:24.525Z,1.23
2016-11-20T02:10:33.171Z,1.22
2016-11-20T02:11:41.804Z,1.2
2016-11-20T02:12:50.438Z,1.26
2016-11-20T02:13:59.054Z,1.16
2016-11-20T02:15:07.679Z,1.16
2016-11-20T02:16:16.346Z,1.33
2016-11-20T02:17:24.989Z,1.34
2016-11-20T02:18:33.619Z,1.36
2016-11-20T02:19:42.265Z,1.32
2016-11-20T02:20:50.910Z,1.41
2016-11-20T02:21:59.528Z,1.36
2016-11-20T02:23:08.171Z,1.33
2016-11-20T02:24:16.823Z,1.3
2016-11-20T02:25:25.483Z,1.33
2016-11-20T02:26:34.111Z,1.41
2016-11-20T02:27:42.719Z,1.34
2016-11-20T02:28:51.347Z,1.22
2016-11-20T02:29:59.975Z,1.29
2016-11-20T02:31:08.569Z,1.26
2016-11-20T02:32:17.198Z,1.3
2016-11-20T02:33:25.832Z,1.4
2016-11-20T02:34:34.452Z,1.36
2016-11-20T02:35:43.081Z,1.4
2016-11-20T02:36:51.683Z,1.37
2016-11-20T02:38:00.291Z,1.37
2016-11-20T02:39:08.895Z,1.37
2016-11-20T02:40:17.540Z,1.4
2016-11-20T02:41:26.158Z,1.47
2016-11-20T02:42:34.760Z,1.4
2016-11-20T02:43:43.401Z,1.52
2016-11-20T02:44:52.026Z,1.5
2016-11-20T02:46:00.643Z,1.5
2016-11-20T02:47:09.246Z,1.5
2016-11-20T02:48:17.861Z,1.54
2016-11-20T02:49:26.467Z,1.59
2016-11-20T02:50:35.073Z,1.62
2016-11-20T02:51:43.695Z,1.59
2016-11-20T02:52:52.316Z,1.55
2016-11-20T02:54:00.923Z,1.55
2016-11-20T02:55:09.532Z,1.55
2016-11-20T02:56:18.134Z,1.6
2016-11-20T02:57:26.758Z,1.65
2016-11-20T02:58:35.375Z,1.63
2016-11-20T02:59:43.980Z,1.6
2016-11-20T03:00:52.613Z,1.6
2016-11-20T03:02:01.542Z,1.6
2016-11-20T03:03:10.145Z,1.65
2016-11-20T03:04:18.756Z,1.73
2016-11-20T03:05:27.387Z,1.68
2016-11-20T03:06:36.020Z,1.68
2016-11-20T03:07:44.627Z,1.63
2016-11-20T03:08:53.262Z,1.68
2016-11-20T03:10:01.908Z,1.6
2016-11-20T03:11:10.529Z,1.68
2016-11-20T03:12:19.150Z,1.7
2016-11-20T03:13:27.772Z,1.66
2016-11-20T03:14:36.404Z,1.65
2016-11-20T03:15:45.020Z,1.65
2016-11-20T03:16:53.667Z,1.69
2016-11-20T03:18:02.293Z,1.65
2016-11-20T03:19:10.959Z,1.72
2016-11-20T03:20:19.553Z,1.73
2016-11-20T03:21:28.185Z,1.77
2016-11-20T03:22:36.823Z,1.76
2016-11-20T03:23:45.449Z,1.73
2016-11-20T03:24:54.087Z,1.68
2016-11-20T03:26:02.713Z,1.8
2016-11-20T03:27:11.337Z,1.84
2016-11-20T03:28:19.960Z,1.83
2016-11-20T03:29:28.581Z,1.87
2016-11-20T03:30:37.217Z,1.84
2016-11-20T03:31:45.825Z,1.84
2016-11-20T03:32:54.459Z,1.81
2016-11-20T03:34:03.385Z,1.87
2016-11-20T03:35:12.002Z,1.91
2016-11-20T03:36:20.619Z,1.88
2016-11-20T03:37:29.228Z,1.95
2016-11-20T03:38:37.847Z,1.9
2016-11-20T03:39:46.464Z,1.88
2016-11-20T03:40:55.057Z,1.99
2016-11-20T03:42:03.677Z,2
2016-11-20T03:43:12.277Z,2.12
2016-11-20T03:44:20.915Z,2.1
2016-11-20T03:45:29.566Z,2.21
2016-11-20T03:46:38.163Z,2.17
2016-11-20T03:47:46.763Z,2.14
2016-11-20T03:48:55.377Z,2.09
2016-11-20T03:50:03.996Z,2.2
2016-11-20T03:51:12.599Z,2.14
2016-11-20T03:52:21.213Z,2.16
2016-11-20T03:53:29.850Z,2.18
2016-11-20T03:54:38.489Z,2.18
2016-11-20T03:55:47.106Z,2.21
2016-11-20T03:56:55.712Z,2.24
2016-11-20T03:58:04.327Z,2.25
2016-11-20T03:59:12.939Z,2.31
2016-11-20T04:00:21.551Z,2.28
2016-11-20T04:01:30.183Z,2.28
2016-11-20T04:02:38.807Z,2.23
2016-11-20T04:03:47.424Z,2.27
2016-11-20T04:04:56.350Z,2.24
2016-11-20T04:06:04.971Z,2.24
2016-11-20T04:07:13.587Z,2.27
2016-11-20T04:08:22.183Z,2.12
2016-11-20T04:09:30.810Z,2.17
2016-11-20T04:10:39.425Z,2.21
2016-11-20T04:11:48.372Z,2.2
2016-11-20T04:12:56.975Z,2.21
2016-11-20T04:14:05.574Z,2.1
2016-11-20T04:15:14.214Z,2.09
2016-11-20T04:16:22.814Z,2.12
2016-11-20T04:17:31.434Z,2.12
2016-11-20T04:18:40.036Z,2.05
2016-11-20T04:19:48.656Z,2.03
2016-11-20T04:20:57.278Z,1.95
2016-11-20T04:22:05.915Z,1.9
2016-11-20T04:23:14.532Z,1.9
2016-11-20T04:24:23.165Z,1.93
2016-11-20T04:25:31.807Z,1.99
2016-11-20T04:26:40.424Z,1.9
2016-11-20T04:27:49.053Z,1.9
2016-11-20T04:28:57.688Z,1.93
2016-11-20T04:30:06.597Z,1.88
2016-11-20T04:31:15.230Z,1.93
2016-11-20T04:32:23.857Z,1.9
2016-11-20T04:33:32.451Z,1.93
2016-11-20T04:34:41.105Z,1.86
2016-11-20T04:35:49.788Z,1.9
2016-11-20T04:36:58.417Z,1.88
2016-11-20T04:38:07.014Z,1.9
2016-11-20T04:39:15.639Z,1.93
2016-11-20T04:40:24.257Z,1.95
2016-11-20T04:41:33.176Z,1.9
2016-11-20T04:42:41.777Z,1.98
2016-11-20T04:43:50.398Z,1.95
2016-11-20T04:44:59.037Z,1.86
2016-11-20T04:46:07.657Z,1.87
2016-11-20T04:47:16.310Z,2.03
2016-11-20T04:48:24.908Z,2.05
2016-11-20T04:49:33.554Z,2.03
2016-11-20T04:50:42.187Z,1.95
2016-11-20T04:51:50.798Z,1.99
2016-11-20T04:52:59.441Z,2
2016-11-20T04:54:08.101Z,2.05
2016-11-20T04:55:16.708Z,1.93
2016-11-20T04:56:25.306Z,2.02
2016-11-20T04:57:33.943Z,2
2016-11-20T04:58:42.848Z,2
2016-11-20T04:59:51.469Z,2.05
2016-11-20T05:01:00.113Z,2.05
2016-11-20T05:02:08.748Z,2.14
2016-11-20T05:03:17.348Z,2.14
2016-11-20T05:04:25.995Z,2.12
2016-11-20T05:05:34.599Z,2.18
2016-11-20T05:06:43.218Z,2.25
2016-11-20T05:07:51.857Z,2.3
2016-11-20T05:09:00.478Z,2.25
2016-11-20T05:10:09.131Z,2.28
2016-11-20T05:11:17.755Z,2.2
2016-11-20T05:12:26.417Z,2.23
2016-11-20T05:13:35.015Z,2.31
2016-11-20T05:14:43.633Z,2.36
2016-11-20T05:15:52.257Z,2.42
2016-11-20T05:17:00.881Z,2.46
2016-11-20T05:18:09.492Z,2.48
2016-11-20T05:19:18.112Z,2.42
2016-11-20T05:20:26.741Z,2.42
2016-11-20T05:21:35.359Z,2.52
2016-11-20T05:22:43.984Z,2.46
2016-11-20T05:23:52.585Z,2.45
2016-11-20T05:25:01.204Z,2.46
2016-11-20T05:26:09.844Z,2.45
2016-11-20T05:27:18.451Z,2.39
2016-11-20T05:28:27.066Z,2.39
2016-11-20T05:29:35.689Z,2.38
2016-11-20T05:30:44.324Z,2.45
2016-11-20T05:31:52.974Z,2.39
2016-11-20T05:33:01.598Z,2.39
2016-11-20T05:34:10.212Z,2.38
2016-11-20T05:35:18.812Z,2.28
2016-11-20T05:36:27.429Z,2.34
2016-11-20T05:37:36.024Z,2.38
2016-11-20T05:38:44.631Z,2.27
2016-11-20T05:39:53.247Z,2.28
2016-11-20T05:41:01.853Z,2.21
2016-11-20T05:42:10.471Z,2.2
2016-11-20T05:43:19.110Z,2.12
2016-11-20T05:44:27.752Z,2.07
2016-11-20T05:45:36.380Z,2.07
2016-11-20T05:46:44.977Z,2
2016-11-20T05:47:53.594Z,2.03
2016-11-20T05:49:02.215Z,1.98
2016-11-20T05:50:10.864Z,1.9
2016-11-20T05:51:19.503Z,1.91
2016-11-20T05:52:28.128Z,1.87
2016-11-20T05:53:36.783Z,1.84
2016-11-20T05:54:45.416Z,1.77
2016-11-20T05:55:54.040Z,1.77
2016-11-20T05:57:02.684Z,1.77
2016-11-20T05:58:11.311Z,1.73
2016-11-20T05:59:19.925Z,1.72
2016-11-20T06:00:28.528Z,1.73
2016-11-20T06:01:37.121Z,1.66
2016-11-20T06:02:45.727Z,1.68
2016-11-20T06:03:54.360Z,1.73
2016-11-20T06:05:03.011Z,1.69
2016-11-20T06:06:11.617Z,1.68
2016-11-20T06:07:20.260Z,1.66
2016-11-20T06:08:28.877Z,1.76
2016-11-20T06:09:37.500Z,1.62
2016-11-20T06:10:46.122Z,1.66
2016-11-20T06:11:54.716Z,1.66
2016-11-20T06:13:03.329Z,1.68
2016-11-20T06:14:11.938Z,1.65
2016-11-20T06:15:20.573Z,1.62
2016-11-20T06:16:29.198Z,1.66
2016-11-20T06:17:37.789Z,1.68
2016-11-20T06:18:46.416Z,1.55
2016-11-20T06:19:55.062Z,1.65
2016-11-20T06:21:03.682Z,1.79
2016-11-20T06:22:12.304Z,1.73
2016-11-20T06:23:20.925Z,1.73
2016-11-20T06:24:29.574Z,1.7
2016-11-20T06:25:38.196Z,1.7
2016-11-20T06:26:46.809Z,1.73
2016-11-20T06:27:55.415Z,1.76
2016-11-20T06:29:04.356Z,1.7
2016-11-20T06:30:12.960Z,1.73
2016-11-20T06:31:21.594Z,1.72
2016-11-20T06:32:30.227Z,1.65
2016-11-20T06:33:38.861Z,1.65
2016-11-20T06:34:47.482Z,1.65
2016-11-20T06:35:56.116Z,1.66
2016-11-20T06:37:04.733Z,1.6
2016-11-20T06:38:13.358Z,1.55
2016-11-20T06:39:21.975Z,1.55
2016-11-20T06:40:30.625Z,1.63
2016-11-20T06:41:39.264Z,1.51
2016-11-20T06:42:47.886Z,1.62
2016-11-20T06:43:56.493Z,1.47
2016-11-20T06:45:05.136Z,1.44
2016-11-20T06:46:13.778Z,1.41
2016-11-20T06:47:22.398Z,1.47
2016-11-20T06:48:31.018Z,1.52
2016-11-20T06:49:39.658Z,1.47
2016-11-20T06:50:48.284Z,1.5
2016-11-20T06:51:56.884Z,1.5
2016-11-20T06:53:05.504Z,1.47
2016-11-20T06:54:14.117Z,1.45
2016-11-20T06:55:22.743Z,1.5
2016-11-20T06:56:31.343Z,1.52
2016-11-20T06:57:39.944Z,1.6
2016-11-20T06:58:48.590Z,1.59
2016-11-20T06:59:57.210Z,1.62
2016-11-20T07:01:05.849Z,1.6
2016-11-20T07:02:14.504Z,1.7
2016-11-20T07:03:23.117Z,1.6
2016-11-20T07:04:31.742Z,1.63
2016-11-20T07:05:40.367Z,1.62
2016-11-20T07:06:49.005Z,1.63
2016-11-20T07:07:57.629Z,1.65
2016-11-20T07:09:06.255Z,1.7
2016-11-20T07:10:14.864Z,1.6
2016-11-20T07:11:23.469Z,1.6
2016-11-20T07:12:32.089Z,1.68
2016-11-20T07:13:40.717Z,1.58
2016-11-20T07:14:49.333Z,1.59
2016-11-20T07:15:57.945Z,1.6
2016-11-20T07:17:06.579Z,1.5
2016-11-20T07:18:15.212Z,1.51
2016-11-20T07:19:23.838Z,1.55
2016-11-20T07:20:32.466Z,1.54
2016-11-20T07:21:41.083Z,1.63
2016-11-20T07:22:49.726Z,1.63
2016-11-20T07:23:58.356Z,1.66
2016-11-20T07:25:07.022Z,1.68
2016-11-20T07:26:15.639Z,1.77
2016-11-20T07:27:24.268Z,1.79
2016-11-20T07:28:32.862Z,1.88
2016-11-20T07:29:41.481Z,1.93
2016-11-20T07:30:50.080Z,2.09
2016-11-20T07:31:58.720Z,2.1
2016-11-20T07:33:07.324Z,2.16
2016-11-20T07:34:15.933Z,2.12
2016-11-20T07:35:24.554Z,2.12
2016-11-20T07:36:33.161Z,2.09
2016-11-20T07:37:41.772Z,2.12
2016-11-20T07:38:50.380Z,2.09
2016-11-20T07:39:58.997Z,2.16
2016-11-20T07:41:07.622Z,2.24
2016-11-20T07:42:16.260Z,2.27
2016-11-20T07:43:24.864Z,2.31
2016-11-20T07:44:33.498Z,2.31
2016-11-20T07:45:42.128Z,2.27
2016-11-20T07:46:50.729Z,2.34
2016-11-20T07:47:59.341Z,2.41
2016-11-20T07:49:08.007Z,2.3
2016-11-20T07:50:16.636Z,2.53
2016-11-20T07:51:25.264Z,2.61
2016-11-20T07:52:33.909Z,2.56
2016-11-20T07:53:42.531Z,2.71
2016-11-20T07:54:51.137Z,2.6
2016-11-20T07:56:00.064Z,2.59
2016-11-20T07:57:08.660Z,2.56
2016-11-20T07:58:17.284Z,2.71
2016-11-20T07:59:25.885Z,2.63
2016-11-20T08:00:34.876Z,2.66
2016-11-20T08:01:43.489Z,2.75
2016-11-20T08:02:52.095Z,2.71
2016-11-20T08:04:00.711Z,2.72
2016-11-20T08:05:09.335Z,2.71
2016-11-20T08:06:17.965Z,2.77
2016-11-20T08:07:26.602Z,2.85
2016-11-20T08:08:35.226Z,2.81
2016-11-20T08:09:43.837Z,2.72
2016-11-20T08:10:52.440Z,2.74
2016-11-20T08:12:01.383Z,2.74
2016-11-20T08:13:10.008Z,2.77
2016-11-20T08:14:18.607Z,2.77
2016-11-20T08:15:27.247Z,2.82
2016-11-20T08:16:35.874Z,2.95
2016-11-20T08:17:44.538Z,2.87
2016-11-20T08:18:53.147Z,3
2016-11-20T08:20:01.765Z,2.95
2016-11-20T08:21:10.405Z,3.06
2016-11-20T08:22:19.330Z,3.11
2016-11-20T08:23:27.927Z,3.14
2016-11-20T08:24:36.560Z,3.17
2016-11-20T08:25:45.209Z,3.21
2016-11-20T08:26:53.826Z,3.18
2016-11-20T08:28:02.461Z,3.21
2016-11-20T08:29:11.097Z,3.15
2016-11-20T08:30:19.701Z,3.29
2016-11-20T08:31:28.315Z,3.29
2016-11-20T08:32:36.941Z,3.39
2016-11-20T08:33:45.559Z,3.32
2016-11-20T08:34:54.199Z,3.33
2016-11-20T08:36:02.856Z,3.43
2016-11-20T08:37:11.490Z,3.43
2016-11-20T08:38:20.137Z,3.47
2016-11-20T08:39:28.765Z,3.45
2016-11-20T08:40:37.367Z,3.54
2016-11-20T08:41:45.974Z,3.47
2016-11-20T08:42:54.600Z,3.6
2016-11-20T08:44:03.196Z,3.58
2016-11-20T08:45:11.817Z,3.58
2016-11-20T08:46:20.446Z,3.66
2016-11-20T08:47:29.080Z,3.58
2016-11-20T08:48:37.688Z,3.68
2016-11-20T08:49:46.325Z,3.7
2016-11-20T08:50:54.948Z,3.8
2016-11-20T08:52:03.572Z,3.79
2016-11-20T08:53:12.190Z,3.69
2016-11-20T08:54:20.818Z,3.78
2016-11-20T08:55:29.457Z,3.87
2016-11-20T08:56:38.100Z,3.9
2016-11-20T08:57:46.709Z,4.04
2016-11-20T08:58:55.349Z,4
2016-11-20T09:00:03.963Z,4.11
2016-11-20T09:01:12.584Z,4.18
2016-11-20T09:02:21.219Z,4.23
2016-11-20T09:03:29.851Z,4.36
2016-11-20T09:04:38.479Z,4.45
2016-11-20T09:05:47.072Z,4.52
2016-11-20T09:06:55.697Z,4.6
2016-11-20T09:08:04.311Z,4.89
2016-11-20T09:09:12.941Z,4.96
2016-11-20T09:10:21.560Z,5.02
2016-11-20T09:11:30.181Z,5.27
2016-11-20T09:12:38.846Z,5.38
2016-11-20T09:13:47.528Z,5.57
2016-11-20T09:14:56.176Z,5.57
2016-11-20T09:16:04.792Z,5.61
2016-11-20T09:17:13.416Z,5.79
2016-11-20T09:18:22.054Z,5.9
2016-11-20T09:19:30.679Z,6.03
2016-11-20T09:20:39.300Z,6.21
2016-11-20T09:21:47.918Z,6.25
2016-11-20T09:22:56.559Z,6.3
2016-11-20T09:24:05.481Z,6.36
2016-11-20T09:25:14.090Z,6.33
2016-11-20T09:26:22.709Z,6.33
2016-11-20T09:27:31.332Z,6.19
2016-11-20T09:28:39.969Z,6.06
2016-11-20T09:29:48.596Z,5.86
2016-11-20T09:30:57.207Z,5.6
2016-11-20T09:32:05.828Z,5.57
2016-11-20T09:33:14.434Z,5.4
2016-11-20T09:34:23.046Z,5.21
2016-11-20T09:35:31.645Z,5.24
2016-11-20T09:36:40.263Z,5.03
2016-11-20T09:37:48.866Z,4.97
2016-11-20T09:38:57.529Z,5.02
2016-11-20T09:40:06.158Z,5.06
2016-11-20T09:41:14.783Z,5.17
2016-11-20T09:42:23.723Z,5.27
2016-11-20T09:43:32.328Z,5.45
2016-11-20T09:44:40.972Z,5.54
2016-11-20T09:45:49.593Z,5.48
2016-11-20T09:46:58.227Z,5.49
2016-11-20T09:48:06.860Z,5.53
2016-11-20T09:49:15.795Z,5.51
2016-11-20T09:50:24.416Z,5.61
2016-11-20T09:51:33.048Z,5.82
2016-11-20T09:52:41.673Z,6.03
2016-11-20T09:53:50.291Z,6.27
2016-11-20T09:54:58.929Z,6.61
2016-11-20T09:56:07.555Z,6.81
2016-11-20T09:57:16.175Z,6.89
2016-11-20T09:58:24.788Z,7.02
2016-11-20T09:59:33.442Z,7.03
2016-11-20T10:00:42.061Z,6.92
2016-11-20T10:01:50.688Z,6.88
2016-11-20T10:02:59.309Z,6.51
2016-11-20T10:04:08.248Z,6.27
2016-11-20T10:05:16.866Z,6.15
2016-11-20T10:06:25.471Z,5.93
2016-11-20T10:07:34.083Z,5.79
2016-11-20T10:08:42.719Z,5.76
2016-11-20T10:09:51.361Z,5.75
2016-11-20T10:10:59.971Z,5.72
2016-11-20T10:12:08.575Z,5.75
2016-11-20T10:13:17.188Z,5.71
2016-11-20T10:14:25.821Z,5.68
2016-11-20T10:15:34.456Z,5.72
2016-11-20T10:16:43.092Z,5.71
2016-11-20T10:17:51.726Z,5.64
2016-11-20T10:19:00.327Z,5.68
2016-11-20T10:20:08.930Z,5.68
2016-11-20T10:21:17.551Z,5.65
2016-11-20T10:22:26.187Z,5.79
2016-11-20T10:23:34.828Z,5.68
2016-11-20T10:24:43.429Z,5.76
2016-11-20T10:25:52.046Z,5.76
2016-11-20T10:27:00.691Z,5.82
2016-11-20T10:28:09.324Z,5.9
2016-11-20T10:29:17.958Z,5.96
2016-11-20T10:30:26.779Z,5.97
2016-11-20T10:31:35.761Z,6.04
2016-11-20T10:32:44.384Z,6.17
2016-11-20T10:33:53.023Z,6.19
2016-11-20T10:35:01.651Z,6.3
2016-11-20T10:36:10.285Z,6.21
2016-11-20T10:37:18.914Z,6.22
2016-11-20T10:38:27.566Z,6.21
2016-11-20T10:39:36.203Z,6.27
2016-11-20T10:40:44.819Z,6.08
2016-11-20T10:41:53.446Z,6.11
2016-11-20T10:43:02.044Z,6.04
2016-11-20T10:44:10.662Z,6.08
2016-11-20T10:45:19.308Z,6.12
2016-11-20T10:46:27.937Z,6.15
2016-11-20T10:47:36.579Z,6.21
2016-11-20T10:48:45.200Z,6.31
2016-11-20T10:49:53.821Z,6.36
2016-11-20T10:51:02.447Z,6.46
2016-11-20T10:52:11.086Z,6.67
2016-11-20T10:53:19.735Z,6.88
2016-11-20T10:54:28.348Z,7.05
2016-11-20T10:55:36.981Z,7.12
2016-11-20T10:56:45.640Z,7.28
2016-11-20T10:57:54.261Z,7.35
2016-11-20T10:59:02.883Z,7.3
2016-11-20T11:00:11.508Z,7.32
2016-11-20T11:01:20.155Z,7.37
2016-11-20T11:02:28.788Z,7.45
2016-11-20T11:03:37.422Z,7.57
2016-11-20T11:04:46.076Z,7.64
2016-11-20T11:05:54.735Z,7.79
2016-11-20T11:07:03.356Z,7.8
2016-11-20T11:08:11.989Z,7.8
2016-11-20T11:09:20.628Z,7.69
2016-11-20T11:10:29.224Z,7.6
2016-11-20T11:11:37.844Z,7.68
2016-11-20T11:12:46.498Z,7.68
2016-11-20T11:13:55.140Z,7.87
2016-11-20T11:15:03.746Z,7.92
2016-11-20T11:16:12.389Z,8
2016-11-20T11:17:21.011Z,8.02
2016-11-20T11:18:29.630Z,8.1
2016-11-20T11:19:38.250Z,8.18
2016-11-20T11:20:46.898Z,8.37
2016-11-20T11:21:55.531Z,8.44
2016-11-20T11:23:04.188Z,8.43
2016-11-20T11:24:12.823Z,8.36
2016-11-20T11:25:21.451Z,8.52
2016-11-20T11:26:30.077Z,8.43
2016-11-20T11:27:38.716Z,8.47
2016-11-20T11:28:47.345Z,8.53
2016-11-20T11:29:55.992Z,8.44
2016-11-20T11:31:04.629Z,8.43
2016-11-20T11:32:13.283Z,8.38
2016-11-20T11:33:21.951Z,8.3
2016-11-20T11:34:30.594Z,8.28
2016-11-20T11:35:39.240Z,8.23
2016-11-20T11:36:47.869Z,8.22
2016-11-20T11:37:56.493Z,8.16
2016-11-20T11:39:05.132Z,8.19
2016-11-20T11:40:13.779Z,8.22
2016-11-20T11:41:22.403Z,8.3
2016-11-20T11:42:31.042Z,8.38
2016-11-20T11:43:39.671Z,8.3
2016-11-20T11:44:48.310Z,8.29
2016-11-20T11:45:56.926Z,8.33
2016-11-20T11:47:05.584Z,8.26
2016-11-20T11:48:14.231Z,8.3
2016-11-20T11:49:22.866Z,8.29
2016-11-20T11:50:31.524Z,8.25
2016-11-20T11:51:40.165Z,8.26
2016-11-20T11:52:48.779Z,8.4
2016-11-20T11:53:57.757Z,8.33
2016-11-20T11:55:06.379Z,8.26
2016-11-20T11:56:15.017Z,8.28
2016-11-20T11:57:23.630Z,8.29
2016-11-20T11:58:32.268Z,8.29
2016-11-20T11:59:40.911Z,8.34
2016-11-20T12:00:49.517Z,8.28
2016-11-20T12:01:58.160Z,8.29
2016-11-20T12:03:06.795Z,8.25
2016-11-20T12:04:15.429Z,8.38
2016-11-20T12:05:24.067Z,8.33
2016-11-20T12:06:32.696Z,8.29
2016-11-20T12:07:41.315Z,8.29
2016-11-20T12:08:49.936Z,8.2
2016-11-20T12:09:58.547Z,8.16
2016-11-20T12:11:07.180Z,8.18
2016-11-20T12:12:15.802Z,8.15
2016-11-20T12:13:24.419Z,8.23
2016-11-20T12:14:33.044Z,8.25
2016-11-20T12:15:41.665Z,8.18
2016-11-20T12:16:50.309Z,8.12
2016-11-20T12:17:58.921Z,8.12
2016-11-20T12:19:07.548Z,8.18
2016-11-20T12:20:16.175Z,8.22
2016-11-20T12:21:24.809Z,8.33
2016-11-20T12:22:33.440Z,8.28
2016-11-20T12:23:42.052Z,8.22
2016-11-20T12:24:50.673Z,8.25
2016-11-20T12:25:59.308Z,8.19
2016-11-20T12:27:07.943Z,8.18
2016-11-20T12:28:16.550Z,8.16
2016-11-20T12:29:25.187Z,8.19
2016-11-20T12:30:33.808Z,8.23
2016-11-20T12:31:42.430Z,8.3
2016-11-20T12:32:51.054Z,8.28
2016-11-20T12:33:59.700Z,8.33
2016-11-20T12:35:08.352Z,8.33
2016-11-20T12:36:16.990Z,8.41
2016-11-20T12:37:25.919Z,8.38
2016-11-20T12:38:34.537Z,8.34
2016-11-20T12:39:43.149Z,8.25
2016-11-20T12:40:51.825Z,8.25
2016-11-20T12:42:00.466Z,8.23
2016-11-20T12:43:09.091Z,8.25
2016-11-20T12:44:17.713Z,8.28
2016-11-20T12:45:26.359Z,8.16
2016-11-20T12:46:35.014Z,8.16
2016-11-20T12:47:43.651Z,8.15
2016-11-20T12:48:52.273Z,8.1
2016-11-20T12:50:00.918Z,8.15
2016-11-20T12:51:09.540Z,8.07
2016-11-20T12:52:18.164Z,8.15
2016-11-20T12:53:26.763Z,8.19
2016-11-20T12:54:35.424Z,8.18
2016-11-20T12:55:44.044Z,8.15
2016-11-20T12:56:52.681Z,8.23
2016-11-20T12:58:01.317Z,8.2
2016-11-20T12:59:09.917Z,8.22
2016-11-20T13:00:18.558Z,8.23
2016-11-20T13:01:27.212Z,8.34
2016-11-20T13:02:35.849Z,8.33
2016-11-20T13:03:44.466Z,8.28
2016-11-20T13:04:53.091Z,8.28
2016-11-20T13:06:01.991Z,8.23
2016-11-20T13:07:10.641Z,8.26
2016-11-20T13:08:19.275Z,8.2
2016-11-20T13:09:27.896Z,8.26
2016-11-20T13:10:36.521Z,8.28
2016-11-20T13:11:45.423Z,8.23
2016-11-20T13:12:54.038Z,8.18
2016-11-20T13:14:02.668Z,8.2
2016-11-20T13:15:11.330Z,8.25
2016-11-20T13:16:19.976Z,8.22
2016-11-20T13:17:28.605Z,8.28
2016-11-20T13:18:37.243Z,8.25
2016-11-20T13:19:45.942Z,8.23
2016-11-20T13:20:54.581Z,8.26
2016-11-20T13:22:03.206Z,8.28
2016-11-20T13:23:11.827Z,8.2
2016-11-20T13:24:20.477Z,8.19
2016-11-20T13:25:29.074Z,8.15
2016-11-20T13:26:37.674Z,8.07
2016-11-20T13:27:46.319Z,8.15
2016-11-20T13:28:54.988Z,8.07
2016-11-20T13:30:03.606Z,8.11
2016-11-20T13:31:12.226Z,8.18
2016-11-20T13:32:20.869Z,8.25
2016-11-20T13:33:29.474Z,8.3
2016-11-20T13:34:38.090Z,8.28
2016-11-20T13:35:46.737Z,8.29
2016-11-20T13:36:55.692Z,8.33
2016-11-20T13:38:04.299Z,8.48
2016-11-20T13:39:12.929Z,8.55
2016-11-20T13:40:21.545Z,8.47
2016-11-20T13:41:30.162Z,8.48
2016-11-20T13:42:38.812Z,8.53
2016-11-20T13:43:47.430Z,8.59
2016-11-20T13:44:56.076Z,8.62
2016-11-20T13:46:04.700Z,8.52
2016-11-20T13:47:13.325Z,8.53
2016-11-20T13:48:21.993Z,8.47
2016-11-20T13:49:30.631Z,8.5
2016-11-20T13:50:39.240Z,8.47
2016-11-20T13:51:47.856Z,8.47
2016-11-20T13:52:56.476Z,8.48
2016-11-20T13:54:05.101Z,8.53
2016-11-20T13:55:13.719Z,8.59
2016-11-20T13:56:22.359Z,8.59
2016-11-20T13:57:31.007Z,8.66
2016-11-20T13:58:39.635Z,8.68
2016-11-20T13:59:48.277Z,8.68
2016-11-20T14:00:56.895Z,8.68
2016-11-20T14:02:05.548Z,8.68
2016-11-20T14:03:14.188Z,8.76
2016-11-20T14:04:22.804Z,8.65
2016-11-20T14:05:31.456Z,8.56
2016-11-20T14:06:40.060Z,8.56
2016-11-20T14:07:48.704Z,8.59
2016-11-20T14:08:57.364Z,8.59
2016-11-20T14:10:06.017Z,8.63
2016-11-20T14:11:14.644Z,8.55
2016-11-20T14:12:23.282Z,8.5
2016-11-20T14:13:31.903Z,8.53
2016-11-20T14:14:40.508Z,8.53
2016-11-20T14:15:49.170Z,8.55
2016-11-20T14:16:57.803Z,8.53
2016-11-20T14:18:06.441Z,8.59
2016-11-20T14:19:15.054Z,8.56
2016-11-20T14:20:23.708Z,8.62
2016-11-20T14:21:32.326Z,8.56
2016-11-20T14:22:40.943Z,8.61
2016-11-20T14:23:49.574Z,8.58
2016-11-20T14:24:58.210Z,8.52
2016-11-20T14:26:06.864Z,8.53
2016-11-20T14:27:15.466Z,8.59
2016-11-20T14:28:24.081Z,8.55
2016-11-20T14:29:32.702Z,8.66
2016-11-20T14:30:41.341Z,8.68
2016-11-20T14:31:49.991Z,8.66
2016-11-20T14:32:58.594Z,8.73
2016-11-20T14:34:07.235Z,8.77
2016-11-20T14:35:15.852Z,8.74
2016-11-20T14:36:24.486Z,8.79
2016-11-20T14:37:33.104Z,8.74
2016-11-20T14:38:41.730Z,8.7
2016-11-20T14:39:50.362Z,8.7
2016-11-20T14:40:59.018Z,8.68
2016-11-20T14:42:07.682Z,8.71
2016-11-20T14:43:16.304Z,8.73
2016-11-20T14:44:24.928Z,8.66
2016-11-20T14:45:33.542Z,8.68
2016-11-20T14:46:42.167Z,8.68
2016-11-20T14:47:50.793Z,8.63
2016-11-20T14:48:59.731Z,8.58
2016-11-20T14:50:08.359Z,8.62
2016-11-20T14:51:17.002Z,8.59
2016-11-20T14:52:25.627Z,8.71
2016-11-20T14:53:34.277Z,8.68
2016-11-20T14:54:42.902Z,8.62
2016-11-20T14:55:51.534Z,8.53
2016-11-20T14:57:00.161Z,8.65
2016-11-20T14:58:08.762Z,8.68
2016-11-20T14:59:17.401Z,8.62
2016-11-20T15:00:26.050Z,8.63
2016-11-20T15:01:34.663Z,8.61
2016-11-20T15:02:43.298Z,8.65
2016-11-20T15:03:52.260Z,8.55
2016-11-20T15:05:00.907Z,8.63
2016-11-20T15:06:09.536Z,8.59
2016-11-20T15:07:18.174Z,8.59
2016-11-20T15:08:26.791Z,8.56
2016-11-20T15:09:35.440Z,8.55
2016-11-20T15:10:44.087Z,8.5
2016-11-20T15:11:52.738Z,8.53
2016-11-20T15:13:01.355Z,8.53
2016-11-20T15:14:09.971Z,8.52
2016-11-20T15:15:18.583Z,8.53
2016-11-20T15:16:27.197Z,8.47
2016-11-20T15:17:35.813Z,8.52